Time;durP1;ratioP1;P1;durP2;ratioP2;P2;SDS_P1;SDS_P2;PMS_P1;PMS_P2;Temp;Humidity;BMP_temperature;BMP_pressure;BME280_temperature;BME280_humidity;BME280_pressure;Samples;Min_cycle;Max_cycle;Signal;HPM_P1;HPM_P2
2023/04/09 00:00:36;;;;;;;18.65;10.98;;;8.30;97.90;;;;;;5055257;28;20052;-65
2023/04/09 00:03:02;;;;;;;29.13;12.65;;;8.30;99.90;;;;;;5037290;28;20056;-65
2023/04/09 00:05:27;;;;;;;23.10;10.65;;;8.30;99.90;;;;;;5055116;28;20053;-65
2023/04/09 00:07:53;;;;;;;23.20;11.43;;;8.30;97.90;;;;;;5055497;28;20501;-65
2023/04/09 00:10:19;;;;;;;24.70;10.88;;;8.30;97.70;;;;;;5055361;28;20029;-64
2023/04/09 00:12:44;;;;;;;20.60;9.45;;;8.30;98.30;;;;;;5055313;28;20139;-65
2023/04/09 00:15:10;;;;;;;14.15;8.65;;;8.30;98.50;;;;;;5055326;28;20037;-65
2023/04/09 00:17:36;;;;;;;19.77;8.82;;;8.20;97.40;;;;;;5055210;28;20124;-64
2023/04/09 00:20:02;;;;;;;19.15;9.82;;;8.20;98.10;;;;;;5055272;28;20045;-64
2023/04/09 00:22:28;;;;;;;16.45;8.43;;;8.20;97.40;;;;;;5055070;28;20074;-65
2023/04/09 00:24:54;;;;;;;20.58;8.57;;;8.20;99.10;;;;;;5054828;28;20477;-65
2023/04/09 00:27:20;;;;;;;20.80;10.30;;;8.20;97.70;;;;;;5036975;28;20037;-65
2023/04/09 00:29:46;;;;;;;19.10;9.63;;;8.20;99.90;;;;;;5055024;28;20108;-65
2023/04/09 00:32:12;;;;;;;23.88;10.98;;;8.20;99.90;;;;;;5055053;28;20037;-65
2023/04/09 00:34:38;;;;;;;20.67;10.90;;;8.10;99.90;;;;;;5054943;28;20039;-65
2023/04/09 00:37:04;;;;;;;19.08;9.45;;;8.10;99.90;;;;;;5054917;28;20033;-65
2023/04/09 00:39:29;;;;;;;16.77;8.90;;;8.10;99.90;;;;;;5054883;28;20047;-64
2023/04/09 00:41:57;;;;;;;21.02;8.75;;;8.10;99.90;;;;;;5054779;28;20480;-64
2023/04/09 00:44:23;;;;;;;23.65;10.55;;;8.10;99.40;;;;;;5054732;28;20440;-65
2023/04/09 00:46:49;;;;;;;16.45;8.23;;;8.00;99.90;;;;;;5055245;28;20067;-65
2023/04/09 00:49:14;;;;;;;21.35;8.98;;;8.10;99.90;;;;;;5054658;28;20040;-65
2023/04/09 00:51:40;;;;;;;24.85;10.77;;;8.10;99.90;;;;;;5054588;28;20091;-65
2023/04/09 00:54:06;;;;;;;17.80;9.98;;;8.00;99.90;;;;;;5054250;28;20044;-65
2023/04/09 00:56:33;;;;;;;22.77;9.40;;;8.00;99.90;;;;;;5054181;28;20049;-65
2023/04/09 00:58:59;;;;;;;21.85;9.95;;;8.00;99.90;;;;;;5053909;28;20037;-65
2023/04/09 01:01:25;;;;;;;22.67;10.25;;;8.00;99.90;;;;;;5054378;28;20094;-65
2023/04/09 01:03:50;;;;;;;20.40;9.23;;;8.00;99.90;;;;;;5053989;28;20555;-65
2023/04/09 01:06:26;;;;;;;19.95;9.38;;;8.00;99.90;;;;;;5053926;28;20037;-65
2023/04/09 01:09:30;;;;;;;20.10;9.80;;;8.00;99.90;;;;;;5054196;28;20044;-65
2023/04/09 01:12:22;;;;;;;22.88;10.30;;;8.00;99.90;;;;;;5049810;28;20412;-65
2023/04/09 01:15:05;;;;;;;20.42;9.38;;;8.00;99.90;;;;;;5054178;28;20044;-65
2023/04/09 01:17:47;;;;;;;17.85;9.32;;;8.00;99.90;;;;;;5054107;28;20048;-65
2023/04/09 01:20:21;;;;;;;23.35;9.70;;;7.90;99.90;;;;;;5054081;28;20048;-65
2023/04/09 01:23:13;;;;;;;20.88;10.38;;;8.00;99.90;;;;;;5053956;28;20048;-65
2023/04/09 01:25:57;;;;;;;;;;;7.90;99.90;;;;;;5054331;28;20448;-65
2023/04/09 01:28:34;;;;;;;18.20;9.18;;;7.90;99.90;;;;;;5053913;28;20296;-66
2023/04/09 01:31:05;;;;;;;20.45;9.63;;;7.90;99.90;;;;;;5053534;28;20128;-65
2023/04/09 01:33:32;;;;;;;23.35;10.02;;;8.00;99.90;;;;;;5053572;28;20041;-65
2023/04/09 01:35:59;;;;;;;17.95;9.75;;;7.90;99.90;;;;;;5053499;28;20472;-65
2023/04/09 01:38:26;;;;;;;17.58;8.77;;;7.90;99.90;;;;;;5053624;28;20043;-65
2023/04/09 01:40:54;;;;;;;16.90;8.45;;;7.90;99.90;;;;;;5053364;28;20451;-66
2023/04/09 01:43:20;;;;;;;17.02;9.10;;;7.90;99.90;;;;;;5035405;28;20045;-65
2023/04/09 01:45:47;;;;;;;18.88;8.65;;;7.80;99.90;;;;;;5053578;28;20040;-65
2023/04/09 01:48:13;;;;;;;17.23;8.50;;;8.80;99.90;;;;;;5053572;28;20045;-65
2023/04/09 01:50:39;;;;;;;17.98;9.50;;;7.80;99.90;;;;;;5053459;28;20369;-65
2023/04/09 01:53:06;;;;;;;21.38;10.43;;;7.80;99.90;;;;;;5053445;28;20543;-65
2023/04/09 01:55:31;;;;;;;21.55;8.40;;;7.80;99.90;;;;;;5053155;28;20094;-65
2023/04/09 01:57:57;;;;;;;13.68;8.52;;;7.70;99.90;;;;;;5053088;28;20033;-65
2023/04/09 02:00:25;;;;;;;23.30;10.43;;;7.70;99.90;;;;;;5053313;28;20064;-65
2023/04/09 02:03:05;;;;;;;25.80;9.35;;;7.70;99.90;;;;;;5035099;28;20132;-65
2023/04/09 02:05:36;;;;;;;17.77;9.27;;;7.70;99.90;;;;;;5052726;28;20053;-65
2023/04/09 02:08:05;;;;;;;25.15;9.55;;;7.70;99.90;;;;;;5053278;28;20198;-65
2023/04/09 02:10:34;;;;;;;22.95;9.20;;;7.70;99.90;;;;;;5052509;28;20041;-65
2023/04/09 02:13:00;;;;;;;20.10;8.38;;;7.70;99.90;;;;;;5052900;28;20045;-65
2023/04/09 02:15:27;;;;;;;21.10;8.93;;;7.70;99.90;;;;;;5053057;28;20083;-65
2023/04/09 02:17:54;;;;;;;17.25;8.40;;;7.60;99.90;;;;;;5052794;28;20120;-65
2023/04/09 02:20:20;;;;;;;21.92;9.25;;;7.60;99.90;;;;;;5053131;28;20381;-65
2023/04/09 02:22:46;;;;;;;17.02;8.70;;;7.60;99.90;;;;;;5052920;28;20076;-65
2023/04/09 02:25:12;;;;;;;22.23;9.68;;;7.60;99.90;;;;;;5053009;28;20037;-65
2023/04/09 02:27:37;;;;;;;15.90;9.02;;;7.60;99.90;;;;;;5052620;28;20045;-65
2023/04/09 02:30:03;;;;;;;23.02;9.55;;;7.60;99.90;;;;;;5052692;28;20040;-65
2023/04/09 02:32:29;;;;;;;19.10;8.23;;;7.60;99.90;;;;;;5052510;28;20041;-65
2023/04/09 02:34:54;;;;;;;18.48;8.68;;;7.60;99.90;;;;;;5052895;28;20055;-65
2023/04/09 02:37:20;;;;;;;21.50;9.00;;;7.60;99.90;;;;;;5052502;28;20408;-65
2023/04/09 02:39:45;;;;;;;15.88;8.50;;;7.60;99.90;;;;;;5052581;28;20120;-65
2023/04/09 02:42:11;;;;;;;21.15;9.35;;;7.70;99.90;;;;;;5034662;28;20044;-65
2023/04/09 02:44:37;;;;;;;20.20;9.65;;;7.70;99.90;;;;;;5034977;28;20037;-65
2023/04/09 02:47:02;;;;;;;19.33;8.95;;;7.70;99.90;;;;;;5034699;28;20187;-65
2023/04/09 02:49:28;;;;;;;22.00;9.52;;;7.70;99.90;;;;;;5052479;28;20044;-65
2023/04/09 02:51:53;;;;;;;22.10;9.55;;;7.70;99.90;;;;;;5052747;28;20071;-65
2023/04/09 02:54:19;;;;;;;21.65;9.48;;;7.70;99.90;;;;;;5052474;28;20056;-65
2023/04/09 02:56:45;;;;;;;19.00;8.43;;;7.70;99.90;;;;;;5052432;28;20040;-65
2023/04/09 02:59:10;;;;;;;18.45;8.75;;;7.70;99.90;;;;;;5052656;28;20029;-65
2023/04/09 03:01:36;;;;;;;17.77;9.90;;;7.70;99.90;;;;;;5052294;28;20477;-65
2023/04/09 03:04:01;;;;;;;20.83;9.88;;;7.70;99.90;;;;;;5052422;28;20045;-65
2023/04/09 03:06:27;;;;;;;18.63;8.68;;;7.70;99.90;;;;;;5034810;28;20385;-62
2023/04/09 03:08:53;;;;;;;19.88;9.73;;;7.70;99.90;;;;;;5052365;28;20029;-62
2023/04/09 03:11:18;;;;;;;15.27;8.00;;;7.70;99.90;;;;;;5052291;28;20041;-62
2023/04/09 03:13:44;;;;;;;21.10;9.82;;;7.70;99.90;;;;;;5034359;28;20044;-62
2023/04/09 03:16:10;;;;;;;27.05;9.77;;;7.70;99.90;;;;;;5052458;28;20039;-62
2023/04/09 03:18:36;;;;;;;22.50;9.23;;;7.70;99.90;;;;;;5052396;28;20554;-62
2023/04/09 03:21:06;;;;;;;23.50;9.35;;;7.70;99.90;;;;;;5052461;28;20481;-62
2023/04/09 03:23:33;;;;;;;28.33;10.85;;;7.70;99.90;;;;;;5054874;28;20036;-62
2023/04/09 03:26:04;;;;;;;20.45;9.77;;;7.70;99.90;;;;;;5056256;28;20097;-62
2023/04/09 03:28:30;;;;;;;20.80;9.38;;;7.70;99.90;;;;;;5056231;28;20099;-62
2023/04/09 03:30:56;;;;;;;24.83;10.10;;;7.70;99.90;;;;;;5056125;28;20533;-62
2023/04/09 03:33:22;;;;;;;20.00;9.05;;;7.60;99.90;;;;;;5055767;28;20040;-62
2023/04/09 03:35:48;;;;;;;20.67;10.63;;;7.70;99.90;;;;;;5055978;28;20116;-62
2023/04/09 03:38:13;;;;;;;20.60;9.15;;;7.60;99.90;;;;;;5055918;28;20112;-62
2023/04/09 03:40:40;;;;;;;20.25;9.18;;;7.70;99.90;;;;;;5055959;28;20067;-62
2023/04/09 03:43:06;;;;;;;27.02;9.98;;;7.60;99.90;;;;;;5055883;28;20188;-62
2023/04/09 03:45:31;;;;;;;17.00;9.10;;;7.70;99.90;;;;;;5055854;28;20076;-62
2023/04/09 03:47:57;;;;;;;20.83;9.10;;;7.60;99.90;;;;;;5055843;28;20073;-62
2023/04/09 03:50:22;;;;;;;24.27;10.02;;;7.60;99.90;;;;;;5055496;28;20033;-62
2023/04/09 03:52:48;;;;;;;17.75;8.90;;;7.60;99.90;;;;;;5037853;28;20085;-62
2023/04/09 03:55:14;;;;;;;21.20;9.57;;;7.70;99.90;;;;;;5055706;28;20036;-62
2023/04/09 03:57:40;;;;;;;21.15;9.73;;;7.70;99.90;;;;;;5055613;28;20494;-62
2023/04/09 04:00:06;;;;;;;19.00;9.23;;;7.70;99.90;;;;;;5055591;28;20071;-63
2023/04/09 04:02:32;;;;;;;21.55;9.57;;;7.60;99.90;;;;;;5055439;28;20086;-62
2023/04/09 04:04:58;;;;;;;18.05;9.88;;;7.60;99.90;;;;;;5055111;28;20064;-62
2023/04/09 04:07:24;;;;;;;17.80;9.73;;;7.70;99.90;;;;;;5055457;28;20476;-62
2023/04/09 04:09:50;;;;;;;20.70;9.63;;;7.70;99.90;;;;;;5055503;28;20040;-62
2023/04/09 04:12:16;;;;;;;21.42;10.02;;;7.70;99.90;;;;;;5055119;28;20045;-62
2023/04/09 04:14:41;;;;;;;19.50;9.68;;;7.70;99.90;;;;;;5055268;28;20115;-62
2023/04/09 04:17:07;;;;;;;25.17;9.93;;;7.70;99.90;;;;;;5055318;28;20488;-62
2023/04/09 04:19:33;;;;;;;18.40;9.13;;;7.70;99.90;;;;;;5055226;28;20090;-62
2023/04/09 04:21:58;;;;;;;20.08;8.95;;;7.70;99.90;;;;;;5054918;28;20493;-62
2023/04/09 04:24:24;;;;;;;17.77;8.68;;;7.70;99.90;;;;;;5055041;28;20037;-62
2023/04/09 04:26:50;;;;;;;23.08;10.52;;;7.70;99.90;;;;;;5055180;28;20033;-62
2023/04/09 04:29:15;;;;;;;24.48;9.48;;;7.70;99.90;;;;;;5055071;28;20033;-62
2023/04/09 04:31:41;;;;;;;19.50;10.15;;;7.70;99.90;;;;;;5054740;28;20124;-62
2023/04/09 04:34:06;;;;;;;26.33;10.50;;;7.70;99.90;;;;;;5054364;28;20091;-62
2023/04/09 04:36:32;;;;;;;25.05;10.02;;;7.60;99.90;;;;;;5054648;28;20499;-62
2023/04/09 04:38:58;;;;;;;26.77;10.98;;;7.70;99.90;;;;;;5054901;28;20041;-62
2023/04/09 04:41:23;;;;;;;20.42;10.02;;;7.60;99.90;;;;;;5054851;28;20048;-62
2023/04/09 04:43:49;;;;;;;19.23;10.48;;;7.70;99.90;;;;;;5054494;28;20052;-62
2023/04/09 04:46:14;;;;;;;20.42;10.10;;;7.70;99.90;;;;;;5054763;28;20514;-62
2023/04/09 04:48:40;;;;;;;24.20;11.05;;;7.70;99.90;;;;;;5054730;28;20392;-62
2023/04/09 04:51:06;;;;;;;21.63;10.10;;;7.90;99.90;;;;;;5054620;28;20039;-62
2023/04/09 04:53:31;;;;;;;21.73;10.45;;;7.60;99.90;;;;;;5054597;28;20037;-62
2023/04/09 04:55:57;;;;;;;28.98;10.65;;;7.60;99.90;;;;;;5054569;28;20424;-62
2023/04/09 04:58:24;;;;;;;22.17;9.77;;;7.70;99.90;;;;;;5054492;28;20111;-62
2023/04/09 05:00:50;;;;;;;26.02;10.27;;;7.60;99.90;;;;;;5036398;28;20041;-62
2023/04/09 05:03:15;;;;;;;23.73;9.18;;;7.70;99.90;;;;;;5054383;28;20091;-62
2023/04/09 05:05:41;;;;;;;27.92;10.77;;;7.70;99.90;;;;;;5054016;28;20254;-63
2023/04/09 05:08:07;;;;;;;28.92;11.18;;;7.70;99.90;;;;;;5054335;28;20037;-62
2023/04/09 05:10:32;;;;;;;25.10;10.43;;;7.70;99.90;;;;;;5054006;28;20075;-62
2023/04/09 05:12:58;;;;;;;24.73;10.40;;;7.70;99.90;;;;;;5054263;28;20392;-62
2023/04/09 05:15:24;;;;;;;26.20;11.13;;;7.70;99.90;;;;;;5053905;28;20404;-62
2023/04/09 05:17:49;;;;;;;22.77;10.15;;;7.70;99.90;;;;;;5054144;28;20033;-62
2023/04/09 05:20:15;;;;;;;20.33;9.25;;;7.70;99.90;;;;;;5054071;28;20045;-62
2023/04/09 05:22:41;;;;;;;23.42;9.75;;;7.70;99.90;;;;;;5054011;28;20048;-62
2023/04/09 05:25:07;;;;;;;22.33;9.63;;;7.70;99.90;;;;;;5053709;28;20037;-62
2023/04/09 05:27:33;;;;;;;18.55;9.23;;;7.70;99.90;;;;;;5035755;28;20037;-63
2023/04/09 05:29:58;;;;;;;20.92;9.45;;;7.70;99.90;;;;;;5053666;28;20040;-64
2023/04/09 05:32:24;;;;;;;19.17;8.98;;;7.70;99.90;;;;;;5053880;28;20036;-62
2023/04/09 05:34:49;;;;;;;14.48;8.88;;;7.70;99.90;;;;;;5035633;28;20040;-62
2023/04/09 05:37:15;;;;;;;15.95;8.75;;;7.70;99.90;;;;;;5053457;28;20040;-62
2023/04/09 05:39:41;;;;;;;19.30;8.88;;;7.60;99.90;;;;;;5036218;28;20048;-62
2023/04/09 05:42:06;;;;;;;17.20;7.90;;;7.70;99.90;;;;;;5035722;28;20072;-62
2023/04/09 05:44:32;;;;;;;19.85;9.73;;;7.70;99.90;;;;;;5053273;28;20407;-63
2023/04/09 05:46:57;;;;;;;17.75;8.93;;;7.70;99.90;;;;;;5052684;28;20086;-63
2023/04/09 05:49:23;;;;;;;21.88;10.25;;;7.70;99.90;;;;;;5053489;28;20033;-62
2023/04/09 05:51:49;;;;;;;20.52;9.32;;;7.70;99.90;;;;;;5053532;28;20041;-63
2023/04/09 05:54:15;;;;;;;18.10;8.85;;;7.70;99.30;;;;;;5053446;28;20067;-62
2023/04/09 05:56:42;;;;;;;25.05;9.15;;;7.70;99.30;;;;;;5053097;28;20072;-64
2023/04/09 05:59:07;;;;;;;19.70;9.65;;;7.70;98.20;;;;;;5053477;28;20190;-63
2023/04/09 06:01:33;;;;;;;14.35;8.45;;;7.70;98.00;;;;;;5035400;28;20060;-62
2023/04/09 06:03:59;;;;;;;23.30;10.02;;;7.70;97.00;;;;;;5053082;28;20139;-63
2023/04/09 06:06:25;;;;;;;16.73;9.13;;;7.70;96.60;;;;;;5052954;28;20045;-62
2023/04/09 06:08:50;;;;;;;26.08;9.57;;;7.70;96.40;;;;;;5053252;28;20036;-64
2023/04/09 06:11:16;;;;;;;23.00;10.52;;;7.70;97.20;;;;;;5052965;28;20041;-63
2023/04/09 06:13:41;;;;;;;21.92;10.50;;;7.80;99.90;;;;;;5035264;28;20080;-65
2023/04/09 06:16:08;;;;;;;25.58;11.45;;;7.80;99.90;;;;;;5052803;28;20045;-62
2023/04/09 06:18:34;;;;;;;25.33;11.55;;;7.80;99.90;;;;;;5053084;28;20443;-63
2023/04/09 06:21:01;;;;;;;20.73;10.65;;;7.80;99.90;;;;;;5053080;28;20071;-63
2023/04/09 06:23:27;;;;;;;25.63;11.80;;;7.90;99.90;;;;;;5052904;28;20045;-63
2023/04/09 06:25:52;;;;;;;24.75;11.88;;;8.00;99.90;;;;;;5052674;28;20418;-62
2023/04/09 06:28:18;;;;;;;25.58;11.50;;;8.00;99.90;;;;;;5052712;28;20040;-63
2023/04/09 06:30:43;;;;;;;23.35;12.15;;;8.10;99.90;;;;;;5034834;28;20072;-62
2023/04/09 06:33:09;;;;;;;32.13;12.02;;;8.10;99.90;;;;;;5052885;28;20040;-62
2023/04/09 06:35:35;;;;;;;25.33;11.13;;;8.10;99.90;;;;;;5052873;28;20040;-62
2023/04/09 06:38:01;;;;;;;28.63;12.85;;;8.20;99.90;;;;;;5052489;28;20041;-62
2023/04/09 06:40:26;;;;;;;23.35;11.30;;;8.20;99.10;;;;;;5052869;28;20121;-63
2023/04/09 06:42:52;;;;;;;23.75;11.48;;;8.30;98.50;;;;;;5052770;28;20037;-63
2023/04/09 06:45:17;;;;;;;21.45;11.73;;;8.40;97.30;;;;;;5034656;28;20408;-62
2023/04/09 06:47:43;;;;;;;30.05;11.20;;;8.40;96.10;;;;;;5034925;28;20468;-62
2023/04/09 06:50:09;;;;;;;22.80;10.80;;;8.50;95.50;;;;;;5052758;28;20120;-63
2023/04/09 06:52:34;;;;;;;23.23;10.30;;;8.50;92.90;;;;;;5052707;28;20060;-63
2023/04/09 06:55:00;;;;;;;23.60;10.60;;;8.50;87.70;;;;;;5052689;28;20086;-63
2023/04/09 06:57:26;;;;;;;23.27;10.30;;;8.80;79.40;;;;;;5053716;28;20041;-63
2023/04/09 06:59:51;;;;;;;22.20;9.98;;;8.50;71.50;;;;;;5038594;28;20047;-62
2023/04/09 07:02:17;;;;;;;24.80;10.27;;;8.60;69.50;;;;;;5056209;28;20126;-63
2023/04/09 07:04:43;;;;;;;23.92;10.75;;;8.50;70.80;;;;;;5056282;28;20061;-63
2023/04/09 07:07:08;;;;;;;21.92;11.18;;;8.60;69.10;;;;;;5038642;28;20502;-63
2023/04/09 07:09:34;;;;;;;26.92;11.25;;;8.70;73.10;;;;;;5038273;28;20045;-63
2023/04/09 07:11:59;;;;;;;24.85;11.82;;;8.70;61.60;;;;;;5021824;28;20489;-63
2023/04/09 07:14:25;;;;;;;25.85;11.57;;;8.70;65.90;;;;;;5056303;28;20040;-63
2023/04/09 07:16:51;;;;;;;24.65;11.35;;;8.90;64.70;;;;;;5056375;28;20041;-63
2023/04/09 07:19:16;;;;;;;20.15;10.30;;;8.80;47.00;;;;;;5056062;28;20029;-63
2023/04/09 07:21:42;;;;;;;25.60;11.73;;;8.90;41.50;;;;;;5056167;28;20071;-63
2023/04/09 07:24:07;;;;;;;20.90;11.57;;;8.80;23.20;;;;;;5056082;28;20107;-63
2023/04/09 07:26:33;;;;;;;25.05;11.90;;;8.90;15.60;;;;;;5056065;28;20556;-63
2023/04/09 07:28:58;;;;;;;23.40;12.57;;;8.90;28.90;;;;;;5056155;28;20033;-63
2023/04/09 07:31:24;;;;;;;22.95;12.15;;;9.10;29.60;;;;;;5056106;28;20079;-63
2023/04/09 07:33:50;;;;;;;27.83;12.48;;;9.20;7.10;;;;;;5056082;28;20437;-63
2023/04/09 07:36:15;;;;;;;20.65;11.23;;;9.30;2.90;;;;;;5055653;28;20479;-64
2023/04/09 07:38:41;;;;;;;21.67;11.18;;;9.40;1.00;;;;;;5055960;28;20037;-63
2023/04/09 07:41:09;;;;;;;23.25;11.15;;;9.50;1.00;;;;;;5037727;28;20045;-63
2023/04/09 07:43:35;;;;;;;24.08;11.00;;;9.60;1.00;;;;;;5055697;28;20125;-63
2023/04/09 07:46:01;;;;;;;21.70;11.27;;;9.50;1.00;;;;;;5055523;28;20120;-63
2023/04/09 07:48:27;;;;;;;20.63;11.70;;;9.50;1.00;;;;;;5055829;28;20393;-63
2023/04/09 07:50:52;;;;;;;25.88;12.13;;;9.50;1.00;;;;;;5055827;28;20388;-63
2023/04/09 07:53:18;;;;;;;21.90;11.70;;;9.50;1.00;;;;;;5055815;28;20041;-63
2023/04/09 07:55:44;;;;;;;23.70;12.57;;;9.60;1.00;;;;;;5055740;28;20041;-64
2023/04/09 07:58:09;;;;;;;21.38;11.55;;;9.70;1.00;;;;;;5037829;28;20029;-63
2023/04/09 08:00:35;;;;;;;18.15;10.45;;;9.80;1.00;;;;;;5055655;28;20081;-63
2023/04/09 08:03:02;;;;;;;23.38;11.35;;;9.90;1.00;;;;;;5055553;28;20130;-63
2023/04/09 08:05:28;;;;;;;21.52;12.20;;;10.10;1.00;;;;;;5055151;28;20049;-63
2023/04/09 08:07:53;;;;;;;28.25;11.98;;;9.90;1.00;;;;;;5055517;28;20395;-63
2023/04/09 08:10:19;;;;;;;24.08;11.35;;;10.00;1.00;;;;;;5054189;28;20544;-63
2023/04/09 08:12:47;;;;;;;29.13;12.82;;;10.20;1.00;;;;;;5055142;28;20059;-63
2023/04/09 08:15:13;;;;;;;22.02;11.73;;;10.00;1.00;;;;;;5055363;28;20116;-63
2023/04/09 08:17:39;;;;;;;27.05;12.82;;;10.00;1.00;;;;;;5055270;28;20073;-63
2023/04/09 08:20:05;;;;;;;26.77;12.93;;;10.30;1.00;;;;;;5055303;28;20103;-64
2023/04/09 08:22:31;;;;;;;25.52;12.75;;;10.20;1.00;;;;;;5037196;28;20048;-64
2023/04/09 08:24:57;;;;;;;24.17;11.43;;;10.10;1.00;;;;;;5055129;28;20041;-63
2023/04/09 08:27:23;;;;;;;23.08;12.60;;;10.10;1.00;;;;;;5055069;28;20546;-63
2023/04/09 08:29:49;;;;;;;24.65;11.75;;;10.10;1.00;;;;;;5055128;28;20373;-63
2023/04/09 08:32:15;;;;;;;23.67;11.90;;;10.30;1.00;;;;;;5055041;28;20416;-63
2023/04/09 08:34:40;;;;;;;22.00;11.75;;;10.40;1.00;;;;;;5055019;28;20472;-64
2023/04/09 08:37:06;;;;;;;24.42;12.55;;;10.50;99.90;;;;;;5054963;28;20130;-63
2023/04/09 08:39:32;;;;;;;23.65;11.23;;;10.50;99.90;;;;;;5054910;28;20484;-63
2023/04/09 08:42:00;;;;;;;23.65;11.60;;;10.50;99.90;;;;;;5054860;28;20071;-63
2023/04/09 08:44:26;;;;;;;25.98;11.20;;;10.70;99.90;;;;;;5054523;28;20045;-64
2023/04/09 08:46:53;;;;;;;24.77;12.55;;;10.80;1.00;;;;;;5054816;28;20036;-63
2023/04/09 08:49:19;;;;;;;22.27;11.05;;;10.90;99.90;;;;;;5054810;28;20408;-64
2023/04/09 08:51:46;;;;;;;28.67;12.00;;;11.00;99.90;;;;;;5054645;28;20037;-63
2023/04/09 08:54:15;;;;;;;24.02;11.90;;;11.00;99.90;;;;;;5054406;28;20182;-63
2023/04/09 08:56:40;;;;;;;24.13;13.02;;;11.10;99.90;;;;;;5054565;28;20056;-63
2023/04/09 08:59:06;;;;;;;27.05;11.65;;;11.20;99.90;;;;;;5054560;28;20033;-64
2023/04/09 09:01:32;;;;;;;26.83;12.55;;;11.10;99.90;;;;;;5054527;28;20047;-65
2023/04/09 09:04:02;;;;;;;24.00;11.95;;;11.40;99.90;;;;;;5054011;28;20542;-64
2023/04/09 09:06:34;;;;;;;19.75;11.50;;;11.80;99.90;;;;;;5054659;28;20086;-64
2023/04/09 09:09:00;;;;;;;22.95;11.68;;;;;;;;;;5054296;28;20055;-64
2023/04/09 09:11:26;;;;;;;23.95;12.55;;;11.70;99.90;;;;;;5054052;28;20425;-67
2023/04/09 09:14:06;;;;;;;21.45;11.55;;;11.50;99.90;;;;;;5054334;28;20082;-65
2023/04/09 09:16:33;;;;;;;25.38;12.38;;;11.90;99.90;;;;;;5035958;28;20044;-65
2023/04/09 09:19:02;;;;;;;27.95;12.32;;;12.00;99.90;;;;;;5054075;28;20090;-64
2023/04/09 09:21:29;;;;;;;28.38;13.00;;;12.10;99.90;;;;;;5053844;28;20120;-64
2023/04/09 09:23:55;;;;;;;22.33;12.55;;;12.30;99.90;;;;;;5053604;28;20033;-63
2023/04/09 09:26:26;;;;;;;25.90;12.80;;;12.30;60.40;;;;;;5053894;28;20044;-65
2023/04/09 09:28:53;;;;;;;23.48;11.75;;;12.40;1.00;;;;;;5053894;28;20124;-64
2023/04/09 09:31:21;;;;;;;23.63;12.98;;;12.30;99.90;;;;;;5053862;28;20049;-63
2023/04/09 09:33:47;;;;;;;22.77;12.05;;;12.30;99.90;;;;;;5053807;28;20040;-64
2023/04/09 09:36:15;;;;;;;21.90;12.35;;;12.40;99.90;;;;;;5053785;28;20484;-63
2023/04/09 09:38:55;;;;;;;18.52;11.20;;;12.30;48.90;;;;;;5053753;28;20123;-63
2023/04/09 09:41:23;;;;;;;21.65;10.65;;;12.40;93.10;;;;;;5053716;28;20469;-63
2023/04/09 09:43:49;;;;;;;24.17;12.38;;;12.40;99.90;;;;;;5053645;28;20116;-63
2023/04/09 09:46:15;;;;;;;21.95;11.93;;;12.40;99.90;;;;;;5053691;28;20045;-63
2023/04/09 09:48:41;;;;;;;20.23;11.80;;;12.20;99.90;;;;;;5054149;28;20068;-66
2023/04/09 09:51:12;;;;;;;23.65;11.68;;;12.30;99.90;;;;;;5035328;28;20072;-66
2023/04/09 09:53:40;;;;;;;21.08;9.90;;;12.30;1.00;;;;;;5053506;28;20456;-66
2023/04/09 09:56:10;;;;;;;19.75;9.73;;;12.30;99.90;;;;;;5035307;28;20443;-66
2023/04/09 09:58:40;;;;;;;20.48;11.30;;;12.40;99.90;;;;;;5053449;28;20061;-67
2023/04/09 10:01:12;;;;;;;23.48;11.68;;;12.60;99.90;;;;;;5035139;28;20119;-68
2023/04/09 10:03:39;;;;;;;23.85;9.90;;;12.90;99.90;;;;;;5035145;28;20040;-67
2023/04/09 10:06:06;;;;;;;21.20;11.65;;;12.90;99.90;;;;;;5052867;28;20052;-66
2023/04/09 10:08:33;;;;;;;24.08;10.10;;;12.70;99.90;;;;;;5053160;28;20052;-66
2023/04/09 10:11:03;;;;;;;20.02;11.43;;;14.30;1.00;;;;;;5053166;28;20064;-67
2023/04/09 10:13:34;;;;;;;21.15;10.18;;;13.20;99.90;;;;;;5052826;28;20062;-67
2023/04/09 10:16:01;;;;;;;19.75;10.65;;;13.10;26.60;;;;;;5052877;28;20041;-66
2023/04/09 10:18:28;;;;;;;21.42;11.48;;;13.10;84.10;;;;;;5052997;28;20029;-67
2023/04/09 10:21:09;;;;;;;24.13;10.85;;;13.00;77.90;;;;;;5052782;28;20048;-66
2023/04/09 10:23:43;;;;;;;;;;;13.20;1.00;;;;;;5053252;28;20056;-68
2023/04/09 10:26:09;;;;;;;20.30;11.70;;;13.40;99.90;;;;;;5053063;28;19925;-67
2023/04/09 10:28:36;;;;;;;22.10;11.00;;;13.30;99.90;;;;;;5052961;28;20035;-65
2023/04/09 10:31:04;;;;;;;16.55;10.00;;;13.00;1.00;;;;;;5052840;28;20068;-66
2023/04/09 10:33:30;;;;;;;18.45;9.63;;;12.90;99.90;;;;;;5052294;28;20051;-66
2023/04/09 10:36:11;;;;;;;21.92;10.57;;;13.20;99.90;;;;;;5052943;28;20400;-66
2023/04/09 10:38:39;;;;;;;15.52;9.07;;;13.20;1.00;;;;;;5052676;28;20037;-66
2023/04/09 10:41:13;;;;;;;23.60;10.20;;;14.20;99.90;;;;;;5052840;28;20443;-66
2023/04/09 10:43:39;;;;;;;20.92;9.48;;;13.40;3.50;;;;;;5052711;28;20076;-67
2023/04/09 10:46:25;;;;;;;20.65;10.05;;;13.40;99.90;;;;;;5052712;28;20029;-67
2023/04/09 10:49:17;;;;;;;18.40;10.15;;;13.60;99.90;;;;;;5052505;28;20036;-67
2023/04/09 10:52:02;;;;;;;19.75;10.48;;;13.80;99.90;;;;;;5052671;28;20037;-67
2023/04/09 10:54:34;;;;;;;21.27;10.95;;;13.90;99.90;;;;;;5052503;28;20091;-67
2023/04/09 10:57:06;;;;;;;19.70;9.65;;;13.80;99.90;;;;;;5052724;28;20045;-68
2023/04/09 10:59:32;;;;;;;21.33;10.27;;;13.80;99.90;;;;;;5034576;28;20419;-68
2023/04/09 11:01:58;;;;;;;18.85;9.60;;;14.10;99.90;;;;;;5052725;28;20037;-66
2023/04/09 11:04:33;;;;;;;21.55;11.13;;;14.40;99.90;;;;;;5052339;28;20110;-66
2023/04/09 11:07:00;;;;;;;23.75;11.20;;;14.10;46.00;;;;;;5052639;28;20049;-67
2023/04/09 11:09:26;;;;;;;20.33;11.13;;;13.90;99.90;;;;;;5052271;28;20036;-67
2023/04/09 11:11:56;;;;;;;18.92;10.43;;;13.60;99.90;;;;;;5052656;28;20102;-67
2023/04/09 11:14:22;;;;;;;14.40;9.32;;;13.60;1.00;;;;;;5052569;28;20041;-67
2023/04/09 11:16:48;;;;;;;21.65;10.93;;;13.50;67.90;;;;;;5052343;28;20093;-67
2023/04/09 11:19:14;;;;;;;19.58;9.05;;;13.40;99.90;;;;;;5052599;28;20063;-67
2023/04/09 11:21:45;;;;;;;20.80;9.95;;;13.50;1.00;;;;;;5052484;28;20037;-67
2023/04/09 11:24:14;;;;;;;;;;;13.40;1.00;;;;;;5034699;28;20045;-67
2023/04/09 11:26:40;;;;;;;16.88;9.02;;;13.40;99.90;;;;;;5052483;28;20363;-66
2023/04/09 11:29:09;;;;;;;21.85;10.75;;;13.90;1.00;;;;;;5052412;28;20072;-67
2023/04/09 11:31:35;;;;;;;16.35;9.50;;;13.60;99.90;;;;;;5052281;28;20037;-68
2023/04/09 11:34:02;;;;;;;18.88;10.07;;;13.60;99.90;;;;;;5052361;28;20477;-68
2023/04/09 11:36:28;;;;;;;19.85;9.95;;;13.10;99.90;;;;;;5052342;28;20036;-67
2023/04/09 11:38:57;;;;;;;16.95;9.40;;;13.70;99.90;;;;;;5052378;28;20411;-67
2023/04/09 11:41:37;;;;;;;18.00;10.07;;;13.80;99.90;;;;;;5034192;28;20552;-67
2023/04/09 11:44:07;;;;;;;20.08;9.07;;;13.90;99.90;;;;;;5053871;28;20053;-67
2023/04/09 11:46:37;;;;;;;16.85;9.48;;;14.10;99.90;;;;;;5055961;28;20063;-67
2023/04/09 11:49:03;;;;;;;18.17;10.77;;;14.10;1.00;;;;;;5037796;28;20041;-67
2023/04/09 11:51:34;;;;;;;14.52;8.70;;;14.20;1.00;;;;;;5055869;28;20275;-67
2023/04/09 11:54:05;;;;;;;22.02;9.98;;;14.30;27.10;;;;;;5056084;28;20126;-65
2023/04/09 11:56:31;;;;;;;19.25;10.02;;;14.30;1.00;;;;;;5055793;28;20037;-67
2023/04/09 11:58:57;;;;;;;16.67;9.73;;;;;;;;;;5021331;28;20040;-68
2023/04/09 12:01:24;;;;;;;22.17;11.00;;;14.70;99.90;;;;;;5055618;28;20440;-68
2023/04/09 12:03:53;;;;;;;16.35;10.23;;;14.70;99.90;;;;;;5055588;28;20037;-68
2023/04/09 12:06:23;;;;;;;17.30;10.32;;;15.10;1.00;;;;;;5035646;28;20053;-68
2023/04/09 12:08:56;;;;;;;25.10;10.77;;;14.50;1.00;;;;;;5035331;28;20045;-68
2023/04/09 12:11:30;;;;;;;16.60;9.23;;;14.30;1.00;;;;;;5017534;28;20044;-68
2023/04/09 12:14:06;;;;;;;15.60;8.68;;;14.30;99.90;;;;;;5017768;28;20049;-68
2023/04/09 12:16:34;;;;;;;15.55;8.77;;;14.40;99.90;;;;;;5035174;28;20045;-69
2023/04/09 12:19:05;;;;;;;19.02;9.48;;;14.40;99.90;;;;;;5035111;28;20112;-68
2023/04/09 12:21:53;;;;;;;18.83;8.55;;;14.30;99.90;;;;;;5035342;28;20037;-68
2023/04/09 12:24:22;;;;;;;13.13;7.32;;;14.60;99.90;;;;;;5035206;28;20037;-68
2023/04/09 12:26:49;;;;;;;13.40;7.43;;;14.50;90.70;;;;;;5017346;28;20045;-68
2023/04/09 12:29:17;;;;;;;14.45;7.38;;;15.00;14.40;;;;;;5034906;28;20064;-68
2023/04/09 12:31:44;;;;;;;14.25;7.45;;;15.30;1.00;;;;;;5035118;28;20381;-68
2023/04/09 12:34:10;;;;;;;17.30;8.32;;;14.90;99.90;;;;;;5017058;28;20100;-68
2023/04/09 12:36:37;;;;;;;13.55;6.88;;;15.00;99.90;;;;;;5035053;28;20378;-68
2023/04/09 12:39:02;;;;;;;14.90;7.55;;;14.80;99.90;;;;;;5017067;28;20068;-68
2023/04/09 12:41:30;;;;;;;15.10;6.95;;;14.60;61.70;;;;;;5034673;28;20033;-67